sensor_id;sensor_type;location;lat;lon;timestamp;P1;durP1;ratioP1;P2;durP2;ratioP2
58992;SDS011;44782;0.000;0.000;2023-06-26T00:02:08;3.53;;;3.22;;
58992;SDS011;44782;0.000;0.000;2023-06-26T00:04:23;3.70;;;3.40;;
58992;SDS011;44782;0.000;0.000;2023-06-26T00:06:40;3.50;;;3.30;;
58992;SDS011;44782;0.000;0.000;2023-06-26T00:08:56;3.40;;;3.20;;
58992;SDS011;44782;0.000;0.000;2023-06-26T00:11:13;3.40;;;3.20;;
58992;SDS011;44782;0.000;0.000;2023-06-26T00:13:29;3.00;;;2.80;;
58992;SDS011;44782;0.000;0.000;2023-06-26T00:15:44;3.20;;;3.00;;
58992;SDS011;44782;0.000;0.000;2023-06-26T00:18:00;3.70;;;3.40;;
58992;SDS011;44782;0.000;0.000;2023-06-26T00:20:18;3.38;;;3.17;;
58992;SDS011;44782;0.000;0.000;2023-06-26T00:22:34;3.00;;;2.80;;
58992;SDS011;44782;0.000;0.000;2023-06-26T00:24:49;3.53;;;3.30;;
58992;SDS011;44782;0.000;0.000;2023-06-26T00:27:05;3.22;;;3.03;;
58992;SDS011;44782;0.000;0.000;2023-06-26T00:29:21;3.60;;;3.30;;
58992;SDS011;44782;0.000;0.000;2023-06-26T00:31:37;3.63;;;3.33;;
58992;SDS011;44782;0.000;0.000;2023-06-26T00:33:53;3.53;;;3.22;;
58992;SDS011;44782;0.000;0.000;2023-06-26T00:36:08;3.72;;;3.42;;
58992;SDS011;44782;0.000;0.000;2023-06-26T00:38:27;3.75;;;3.45;;
58992;SDS011;44782;0.000;0.000;2023-06-26T00:40:42;3.47;;;3.28;;
58992;SDS011;44782;0.000;0.000;2023-06-26T00:42:58;3.42;;;3.22;;
58992;SDS011;44782;0.000;0.000;2023-06-26T00:45:14;3.20;;;3.00;;
58992;SDS011;44782;0.000;0.000;2023-06-26T00:47:30;3.60;;;3.30;;
58992;SDS011;44782;0.000;0.000;2023-06-26T00:49:46;3.30;;;3.10;;
58992;SDS011;44782;0.000;0.000;2023-06-26T00:52:02;3.55;;;3.25;;
58992;SDS011;44782;0.000;0.000;2023-06-26T00:54:18;3.25;;;3.00;;
58992;SDS011;44782;0.000;0.000;2023-06-26T00:56:37;3.08;;;2.88;;
58992;SDS011;44782;0.000;0.000;2023-06-26T00:58:52;3.00;;;2.80;;
58992;SDS011;44782;0.000;0.000;2023-06-26T01:01:08;3.17;;;2.97;;
58992;SDS011;44782;0.000;0.000;2023-06-26T01:03:30;3.20;;;3.00;;
58992;SDS011;44782;0.000;0.000;2023-06-26T01:05:46;3.15;;;2.95;;
58992;SDS011;44782;0.000;0.000;2023-06-26T01:08:04;3.55;;;3.25;;
58992;SDS011;44782;0.000;0.000;2023-06-26T01:10:20;3.28;;;3.08;;
58992;SDS011;44782;0.000;0.000;2023-06-26T01:12:36;2.95;;;2.75;;
58992;SDS011;44782;0.000;0.000;2023-06-26T01:14:53;3.60;;;3.30;;
58992;SDS011;44782;0.000;0.000;2023-06-26T01:17:09;3.15;;;2.95;;
58992;SDS011;44782;0.000;0.000;2023-06-26T01:19:30;2.95;;;2.75;;
58992;SDS011;44782;0.000;0.000;2023-06-26T01:21:48;3.17;;;2.97;;
58992;SDS011;44782;0.000;0.000;2023-06-26T01:24:09;3.08;;;2.88;;
58992;SDS011;44782;0.000;0.000;2023-06-26T01:26:35;3.05;;;2.85;;
58992;SDS011;44782;0.000;0.000;2023-06-26T01:28:53;3.30;;;3.10;;
58992;SDS011;44782;0.000;0.000;2023-06-26T01:31:11;3.33;;;3.03;;
58992;SDS011;44782;0.000;0.000;2023-06-26T01:33:28;3.30;;;3.10;;
58992;SDS011;44782;0.000;0.000;2023-06-26T01:35:44;3.25;;;3.05;;
58992;SDS011;44782;0.000;0.000;2023-06-26T01:38:18;3.17;;;2.97;;
58992;SDS011;44782;0.000;0.000;2023-06-26T01:40:35;2.97;;;2.78;;
58992;SDS011;44782;0.000;0.000;2023-06-26T01:42:51;2.90;;;2.70;;
58992;SDS011;44782;0.000;0.000;2023-06-26T01:45:29;3.75;;;3.20;;
58992;SDS011;44782;0.000;0.000;2023-06-26T01:47:46;3.30;;;3.10;;
58992;SDS011;44782;0.000;0.000;2023-06-26T01:50:06;2.80;;;2.60;;
58992;SDS011;44782;0.000;0.000;2023-06-26T01:55:21;2.92;;;2.72;;
58992;SDS011;44782;0.000;0.000;2023-06-26T01:57:48;3.30;;;3.00;;
58992;SDS011;44782;0.000;0.000;2023-06-26T02:00:07;3.13;;;2.92;;
58992;SDS011;44782;0.000;0.000;2023-06-26T02:02:27;2.80;;;2.60;;
58992;SDS011;44782;0.000;0.000;2023-06-26T02:04:44;2.90;;;2.70;;
58992;SDS011;44782;0.000;0.000;2023-06-26T02:07:03;2.80;;;2.60;;
58992;SDS011;44782;0.000;0.000;2023-06-26T02:09:19;2.60;;;2.40;;
58992;SDS011;44782;0.000;0.000;2023-06-26T02:11:35;3.08;;;2.88;;
58992;SDS011;44782;0.000;0.000;2023-06-26T02:13:50;2.83;;;2.63;;
58992;SDS011;44782;0.000;0.000;2023-06-26T02:16:06;2.78;;;2.58;;
58992;SDS011;44782;0.000;0.000;2023-06-26T02:18:22;2.75;;;2.55;;
58992;SDS011;44782;0.000;0.000;2023-06-26T02:20:38;3.10;;;2.80;;
58992;SDS011;44782;0.000;0.000;2023-06-26T02:22:54;2.92;;;2.72;;
58992;SDS011;44782;0.000;0.000;2023-06-26T02:25:10;2.85;;;2.58;;
58992;SDS011;44782;0.000;0.000;2023-06-26T02:27:27;3.08;;;2.78;;
58992;SDS011;44782;0.000;0.000;2023-06-26T02:29:43;2.95;;;2.75;;
58992;SDS011;44782;0.000;0.000;2023-06-26T02:31:58;3.05;;;2.80;;
58992;SDS011;44782;0.000;0.000;2023-06-26T02:34:14;2.83;;;2.63;;
58992;SDS011;44782;0.000;0.000;2023-06-26T02:36:30;2.72;;;2.53;;
58992;SDS011;44782;0.000;0.000;2023-06-26T02:38:46;3.00;;;2.80;;
58992;SDS011;44782;0.000;0.000;2023-06-26T02:41:01;2.58;;;2.40;;
58992;SDS011;44782;0.000;0.000;2023-06-26T02:43:17;3.00;;;2.60;;
58992;SDS011;44782;0.000;0.000;2023-06-26T02:45:33;2.75;;;2.55;;
58992;SDS011;44782;0.000;0.000;2023-06-26T02:47:48;2.80;;;2.60;;
58992;SDS011;44782;0.000;0.000;2023-06-26T02:50:05;2.78;;;2.58;;
58992;SDS011;44782;0.000;0.000;2023-06-26T02:52:22;2.90;;;2.70;;
58992;SDS011;44782;0.000;0.000;2023-06-26T02:54:37;2.60;;;2.40;;
58992;SDS011;44782;0.000;0.000;2023-06-26T02:56:53;2.63;;;2.42;;
58992;SDS011;44782;0.000;0.000;2023-06-26T02:59:09;2.40;;;2.22;;
58992;SDS011;44782;0.000;0.000;2023-06-26T03:01:24;2.67;;;2.47;;
58992;SDS011;44782;0.000;0.000;2023-06-26T03:03:41;2.80;;;2.60;;
58992;SDS011;44782;0.000;0.000;2023-06-26T03:05:56;2.70;;;2.50;;
58992;SDS011;44782;0.000;0.000;2023-06-26T03:08:12;2.67;;;2.47;;
58992;SDS011;44782;0.000;0.000;2023-06-26T03:10:28;2.78;;;2.58;;
58992;SDS011;44782;0.000;0.000;2023-06-26T03:12:44;2.42;;;2.22;;
58992;SDS011;44782;0.000;0.000;2023-06-26T03:14:59;2.78;;;2.58;;
58992;SDS011;44782;0.000;0.000;2023-06-26T03:17:15;2.50;;;2.30;;
58992;SDS011;44782;0.000;0.000;2023-06-26T03:19:30;2.90;;;2.70;;
58992;SDS011;44782;0.000;0.000;2023-06-26T03:21:46;2.67;;;2.35;;
58992;SDS011;44782;0.000;0.000;2023-06-26T03:24:02;2.60;;;2.40;;
58992;SDS011;44782;0.000;0.000;2023-06-26T03:26:18;2.83;;;2.53;;
58992;SDS011;44782;0.000;0.000;2023-06-26T03:28:33;2.17;;;2.08;;
58992;SDS011;44782;0.000;0.000;2023-06-26T03:30:49;2.70;;;2.50;;
58992;SDS011;44782;0.000;0.000;2023-06-26T03:33:05;2.65;;;2.45;;
58992;SDS011;44782;0.000;0.000;2023-06-26T03:35:20;2.60;;;2.40;;
58992;SDS011;44782;0.000;0.000;2023-06-26T03:37:37;2.60;;;2.40;;
58992;SDS011;44782;0.000;0.000;2023-06-26T03:39:53;3.10;;;2.80;;
58992;SDS011;44782;0.000;0.000;2023-06-26T03:42:08;2.78;;;2.58;;
58992;SDS011;44782;0.000;0.000;2023-06-26T03:44:24;2.97;;;2.72;;
58992;SDS011;44782;0.000;0.000;2023-06-26T03:46:40;2.55;;;2.35;;
58992;SDS011;44782;0.000;0.000;2023-06-26T03:48:55;2.45;;;2.25;;
58992;SDS011;44782;0.000;0.000;2023-06-26T03:51:11;2.50;;;2.30;;
58992;SDS011;44782;0.000;0.000;2023-06-26T03:53:27;2.33;;;2.22;;
58992;SDS011;44782;0.000;0.000;2023-06-26T03:55:42;2.28;;;2.17;;
58992;SDS011;44782;0.000;0.000;2023-06-26T03:57:58;2.60;;;2.40;;
58992;SDS011;44782;0.000;0.000;2023-06-26T04:00:14;2.60;;;2.40;;
58992;SDS011;44782;0.000;0.000;2023-06-26T04:02:30;2.28;;;2.17;;
58992;SDS011;44782;0.000;0.000;2023-06-26T04:04:46;2.45;;;2.35;;
58992;SDS011;44782;0.000;0.000;2023-06-26T04:07:01;2.58;;;2.38;;
58992;SDS011;44782;0.000;0.000;2023-06-26T04:09:17;2.67;;;2.47;;
58992;SDS011;44782;0.000;0.000;2023-06-26T04:11:34;2.72;;;2.53;;
58992;SDS011;44782;0.000;0.000;2023-06-26T04:13:50;2.60;;;2.40;;
58992;SDS011;44782;0.000;0.000;2023-06-26T04:16:05;2.60;;;2.40;;
58992;SDS011;44782;0.000;0.000;2023-06-26T04:18:22;2.40;;;2.20;;
58992;SDS011;44782;0.000;0.000;2023-06-26T04:20:41;2.30;;;2.20;;
58992;SDS011;44782;0.000;0.000;2023-06-26T04:23:17;2.33;;;2.13;;
58992;SDS011;44782;0.000;0.000;2023-06-26T04:25:33;2.17;;;2.05;;
58992;SDS011;44782;0.000;0.000;2023-06-26T04:27:48;2.85;;;2.35;;
58992;SDS011;44782;0.000;0.000;2023-06-26T04:30:04;2.35;;;2.20;;
58992;SDS011;44782;0.000;0.000;2023-06-26T04:32:20;2.55;;;2.35;;
58992;SDS011;44782;0.000;0.000;2023-06-26T04:34:36;2.05;;;1.95;;
58992;SDS011;44782;0.000;0.000;2023-06-26T04:36:56;2.50;;;2.30;;
58992;SDS011;44782;0.000;0.000;2023-06-26T04:39:11;2.30;;;2.10;;
58992;SDS011;44782;0.000;0.000;2023-06-26T04:41:27;2.25;;;2.05;;
58992;SDS011;44782;0.000;0.000;2023-06-26T04:43:43;2.20;;;2.10;;
58992;SDS011;44782;0.000;0.000;2023-06-26T04:45:59;2.40;;;2.20;;
58992;SDS011;44782;0.000;0.000;2023-06-26T04:48:15;2.20;;;2.10;;
58992;SDS011;44782;0.000;0.000;2023-06-26T04:50:31;2.63;;;2.42;;
58992;SDS011;44782;0.000;0.000;2023-06-26T04:52:48;2.33;;;2.17;;
58992;SDS011;44782;0.000;0.000;2023-06-26T04:55:04;2.85;;;2.08;;
58992;SDS011;44782;0.000;0.000;2023-06-26T04:57:20;2.50;;;2.30;;
58992;SDS011;44782;0.000;0.000;2023-06-26T04:59:36;2.47;;;2.28;;
58992;SDS011;44782;0.000;0.000;2023-06-26T05:01:51;2.03;;;1.90;;
58992;SDS011;44782;0.000;0.000;2023-06-26T05:04:07;2.40;;;2.17;;
58992;SDS011;44782;0.000;0.000;2023-06-26T05:06:23;2.45;;;2.25;;
58992;SDS011;44782;0.000;0.000;2023-06-26T05:08:39;2.20;;;2.00;;
58992;SDS011;44782;0.000;0.000;2023-06-26T05:10:54;2.58;;;2.38;;
58992;SDS011;44782;0.000;0.000;2023-06-26T05:13:13;2.30;;;2.10;;
58992;SDS011;44782;0.000;0.000;2023-06-26T05:15:32;2.35;;;2.15;;
58992;SDS011;44782;0.000;0.000;2023-06-26T05:17:48;2.20;;;2.00;;
58992;SDS011;44782;0.000;0.000;2023-06-26T05:20:04;2.33;;;2.00;;
58992;SDS011;44782;0.000;0.000;2023-06-26T05:22:20;2.30;;;2.10;;
58992;SDS011;44782;0.000;0.000;2023-06-26T05:24:37;2.35;;;2.15;;
58992;SDS011;44782;0.000;0.000;2023-06-26T05:26:54;2.30;;;2.00;;
58992;SDS011;44782;0.000;0.000;2023-06-26T05:29:10;2.00;;;1.90;;
58992;SDS011;44782;0.000;0.000;2023-06-26T05:31:26;3.45;;;2.10;;
58992;SDS011;44782;0.000;0.000;2023-06-26T05:33:45;2.10;;;1.90;;
58992;SDS011;44782;0.000;0.000;2023-06-26T05:36:02;2.30;;;2.10;;
58992;SDS011;44782;0.000;0.000;2023-06-26T05:38:20;2.50;;;2.30;;
58992;SDS011;44782;0.000;0.000;2023-06-26T05:40:36;2.95;;;2.30;;
58992;SDS011;44782;0.000;0.000;2023-06-26T05:42:52;2.22;;;2.03;;
58992;SDS011;44782;0.000;0.000;2023-06-26T05:45:09;2.47;;;2.13;;
58992;SDS011;44782;0.000;0.000;2023-06-26T05:47:25;2.47;;;2.28;;
58992;SDS011;44782;0.000;0.000;2023-06-26T05:49:41;2.40;;;2.13;;
58992;SDS011;44782;0.000;0.000;2023-06-26T05:51:57;2.03;;;1.80;;
58992;SDS011;44782;0.000;0.000;2023-06-26T05:54:13;2.05;;;1.80;;
58992;SDS011;44782;0.000;0.000;2023-06-26T05:56:29;2.40;;;2.20;;
58992;SDS011;44782;0.000;0.000;2023-06-26T05:58:45;2.10;;;1.90;;
58992;SDS011;44782;0.000;0.000;2023-06-26T06:01:01;2.30;;;2.10;;
58992;SDS011;44782;0.000;0.000;2023-06-26T06:03:17;2.45;;;2.25;;
58992;SDS011;44782;0.000;0.000;2023-06-26T06:05:33;2.30;;;2.10;;
58992;SDS011;44782;0.000;0.000;2023-06-26T06:07:49;2.25;;;2.05;;
58992;SDS011;44782;0.000;0.000;2023-06-26T06:10:05;2.08;;;1.90;;
58992;SDS011;44782;0.000;0.000;2023-06-26T06:12:21;2.72;;;2.22;;
58992;SDS011;44782;0.000;0.000;2023-06-26T06:14:37;2.45;;;2.25;;
58992;SDS011;44782;0.000;0.000;2023-06-26T06:16:53;3.00;;;2.05;;
58992;SDS011;44782;0.000;0.000;2023-06-26T06:19:09;2.33;;;2.13;;
58992;SDS011;44782;0.000;0.000;2023-06-26T06:21:26;1.98;;;1.77;;
58992;SDS011;44782;0.000;0.000;2023-06-26T06:23:42;2.22;;;1.92;;
58992;SDS011;44782;0.000;0.000;2023-06-26T06:25:58;1.95;;;1.80;;
58992;SDS011;44782;0.000;0.000;2023-06-26T06:28:13;2.30;;;2.10;;
58992;SDS011;44782;0.000;0.000;2023-06-26T06:30:31;2.30;;;2.10;;
58992;SDS011;44782;0.000;0.000;2023-06-26T06:32:47;2.30;;;2.10;;
58992;SDS011;44782;0.000;0.000;2023-06-26T06:35:05;2.55;;;2.15;;
58992;SDS011;44782;0.000;0.000;2023-06-26T06:37:24;2.13;;;2.00;;
58992;SDS011;44782;0.000;0.000;2023-06-26T06:39:41;2.10;;;1.92;;
58992;SDS011;44782;0.000;0.000;2023-06-26T06:41:57;2.10;;;1.90;;
58992;SDS011;44782;0.000;0.000;2023-06-26T06:44:12;2.30;;;2.10;;
58992;SDS011;44782;0.000;0.000;2023-06-26T06:46:28;2.30;;;2.10;;
58992;SDS011;44782;0.000;0.000;2023-06-26T06:48:44;2.20;;;2.00;;
58992;SDS011;44782;0.000;0.000;2023-06-26T06:51:01;3.03;;;1.88;;
58992;SDS011;44782;0.000;0.000;2023-06-26T06:53:17;2.28;;;2.08;;
58992;SDS011;44782;0.000;0.000;2023-06-26T06:55:35;2.13;;;1.92;;
58992;SDS011;44782;0.000;0.000;2023-06-26T06:57:51;2.22;;;1.90;;
58992;SDS011;44782;0.000;0.000;2023-06-26T07:00:10;2.13;;;1.92;;
58992;SDS011;44782;0.000;0.000;2023-06-26T07:02:29;2.38;;;2.17;;
58992;SDS011;44782;0.000;0.000;2023-06-26T07:04:45;2.10;;;1.90;;
58992;SDS011;44782;0.000;0.000;2023-06-26T07:07:00;2.20;;;2.00;;
58992;SDS011;44782;0.000;0.000;2023-06-26T07:09:16;2.08;;;1.92;;
58992;SDS011;44782;0.000;0.000;2023-06-26T07:11:32;2.33;;;1.85;;
58992;SDS011;44782;0.000;0.000;2023-06-26T07:13:47;2.55;;;2.35;;
58992;SDS011;44782;0.000;0.000;2023-06-26T07:16:03;1.98;;;1.88;;
58992;SDS011;44782;0.000;0.000;2023-06-26T07:18:19;1.75;;;1.60;;
58992;SDS011;44782;0.000;0.000;2023-06-26T07:20:35;2.20;;;2.00;;
58992;SDS011;44782;0.000;0.000;2023-06-26T07:22:50;2.22;;;2.03;;
58992;SDS011;44782;0.000;0.000;2023-06-26T07:25:07;2.35;;;2.15;;
58992;SDS011;44782;0.000;0.000;2023-06-26T07:27:26;2.20;;;2.00;;
58992;SDS011;44782;0.000;0.000;2023-06-26T07:29:42;2.00;;;1.90;;
58992;SDS011;44782;0.000;0.000;2023-06-26T07:31:58;2.10;;;1.90;;
58992;SDS011;44782;0.000;0.000;2023-06-26T07:34:13;2.22;;;2.03;;
58992;SDS011;44782;0.000;0.000;2023-06-26T07:36:29;2.40;;;1.90;;
58992;SDS011;44782;0.000;0.000;2023-06-26T07:38:44;1.90;;;1.80;;
58992;SDS011;44782;0.000;0.000;2023-06-26T07:41:00;2.10;;;1.90;;
58992;SDS011;44782;0.000;0.000;2023-06-26T07:43:16;2.15;;;1.95;;
58992;SDS011;44782;0.000;0.000;2023-06-26T07:45:32;2.45;;;2.10;;
58992;SDS011;44782;0.000;0.000;2023-06-26T07:47:47;2.20;;;2.00;;
58992;SDS011;44782;0.000;0.000;2023-06-26T07:50:03;2.70;;;2.00;;
58992;SDS011;44782;0.000;0.000;2023-06-26T07:52:19;2.17;;;1.80;;
58992;SDS011;44782;0.000;0.000;2023-06-26T07:54:35;2.13;;;1.92;;
58992;SDS011;44782;0.000;0.000;2023-06-26T07:57:01;2.13;;;2.00;;
58992;SDS011;44782;0.000;0.000;2023-06-26T07:59:19;2.30;;;2.10;;
58992;SDS011;44782;0.000;0.000;2023-06-26T08:01:38;2.08;;;1.88;;
58992;SDS011;44782;0.000;0.000;2023-06-26T08:03:54;2.10;;;1.90;;
58992;SDS011;44782;0.000;0.000;2023-06-26T08:06:09;1.95;;;1.85;;
58992;SDS011;44782;0.000;0.000;2023-06-26T08:08:25;2.15;;;1.95;;
58992;SDS011;44782;0.000;0.000;2023-06-26T08:10:41;2.40;;;2.20;;
58992;SDS011;44782;0.000;0.000;2023-06-26T08:12:56;2.05;;;1.85;;
58992;SDS011;44782;0.000;0.000;2023-06-26T08:15:13;2.22;;;1.92;;
58992;SDS011;44782;0.000;0.000;2023-06-26T08:17:29;1.90;;;1.80;;
58992;SDS011;44782;0.000;0.000;2023-06-26T08:19:44;2.13;;;1.90;;
58992;SDS011;44782;0.000;0.000;2023-06-26T08:22:00;2.15;;;1.98;;
58992;SDS011;44782;0.000;0.000;2023-06-26T08:24:15;2.83;;;1.90;;
58992;SDS011;44782;0.000;0.000;2023-06-26T08:26:33;1.80;;;1.70;;
58992;SDS011;44782;0.000;0.000;2023-06-26T08:28:49;2.92;;;2.08;;
58992;SDS011;44782;0.000;0.000;2023-06-26T08:31:05;2.08;;;1.88;;
58992;SDS011;44782;0.000;0.000;2023-06-26T08:33:20;2.10;;;1.90;;
58992;SDS011;44782;0.000;0.000;2023-06-26T08:35:36;1.88;;;1.77;;
58992;SDS011;44782;0.000;0.000;2023-06-26T08:37:52;2.35;;;2.00;;
58992;SDS011;44782;0.000;0.000;2023-06-26T08:40:09;2.10;;;1.90;;
58992;SDS011;44782;0.000;0.000;2023-06-26T08:42:25;2.28;;;1.98;;
58992;SDS011;44782;0.000;0.000;2023-06-26T08:44:41;2.10;;;1.92;;
58992;SDS011;44782;0.000;0.000;2023-06-26T08:46:59;1.90;;;1.70;;
58992;SDS011;44782;0.000;0.000;2023-06-26T08:49:25;2.20;;;2.00;;
58992;SDS011;44782;0.000;0.000;2023-06-26T08:51:52;2.17;;;1.98;;
58992;SDS011;44782;0.000;0.000;2023-06-26T08:54:12;1.80;;;1.70;;
58992;SDS011;44782;0.000;0.000;2023-06-26T08:56:41;2.28;;;1.80;;
58992;SDS011;44782;0.000;0.000;2023-06-26T08:58:59;1.60;;;1.50;;
58992;SDS011;44782;0.000;0.000;2023-06-26T09:01:16;2.00;;;1.73;;
58992;SDS011;44782;0.000;0.000;2023-06-26T09:03:34;1.90;;;1.80;;
58992;SDS011;44782;0.000;0.000;2023-06-26T09:05:50;2.35;;;1.98;;
58992;SDS011;44782;0.000;0.000;2023-06-26T09:08:06;1.95;;;1.70;;
58992;SDS011;44782;0.000;0.000;2023-06-26T09:10:22;1.95;;;1.70;;
58992;SDS011;44782;0.000;0.000;2023-06-26T09:12:38;2.10;;;1.90;;
58992;SDS011;44782;0.000;0.000;2023-06-26T09:14:55;1.73;;;1.63;;
58992;SDS011;44782;0.000;0.000;2023-06-26T09:17:12;2.67;;;1.85;;
58992;SDS011;44782;0.000;0.000;2023-06-26T09:19:28;2.00;;;1.90;;
58992;SDS011;44782;0.000;0.000;2023-06-26T09:21:44;1.83;;;1.70;;
58992;SDS011;44782;0.000;0.000;2023-06-26T09:23:59;1.90;;;1.80;;
58992;SDS011;44782;0.000;0.000;2023-06-26T09:26:15;2.25;;;1.80;;
58992;SDS011;44782;0.000;0.000;2023-06-26T09:28:33;1.70;;;1.60;;
58992;SDS011;44782;0.000;0.000;2023-06-26T09:30:50;2.22;;;1.80;;
58992;SDS011;44782;0.000;0.000;2023-06-26T09:33:16;1.85;;;1.73;;
58992;SDS011;44782;0.000;0.000;2023-06-26T09:35:35;1.80;;;1.70;;
58992;SDS011;44782;0.000;0.000;2023-06-26T09:37:51;2.00;;;1.90;;
58992;SDS011;44782;0.000;0.000;2023-06-26T09:40:09;1.90;;;1.80;;
58992;SDS011;44782;0.000;0.000;2023-06-26T09:42:25;1.80;;;1.70;;
58992;SDS011;44782;0.000;0.000;2023-06-26T09:44:43;2.03;;;1.80;;
58992;SDS011;44782;0.000;0.000;2023-06-26T09:47:01;2.15;;;1.90;;
58992;SDS011;44782;0.000;0.000;2023-06-26T09:49:20;1.88;;;1.73;;
58992;SDS011;44782;0.000;0.000;2023-06-26T09:51:36;1.73;;;1.63;;
58992;SDS011;44782;0.000;0.000;2023-06-26T09:53:57;1.80;;;1.70;;
58992;SDS011;44782;0.000;0.000;2023-06-26T09:56:17;1.75;;;1.60;;
58992;SDS011;44782;0.000;0.000;2023-06-26T09:58:36;1.60;;;1.50;;
58992;SDS011;44782;0.000;0.000;2023-06-26T10:00:56;4.22;;;1.80;;
58992;SDS011;44782;0.000;0.000;2023-06-26T10:03:13;2.03;;;1.55;;
58992;SDS011;44782;0.000;0.000;2023-06-26T10:05:32;1.80;;;1.70;;
58992;SDS011;44782;0.000;0.000;2023-06-26T10:07:49;1.67;;;1.50;;
58992;SDS011;44782;0.000;0.000;2023-06-26T10:10:06;1.80;;;1.67;;
58992;SDS011;44782;0.000;0.000;2023-06-26T10:12:26;1.60;;;1.50;;
58992;SDS011;44782;0.000;0.000;2023-06-26T10:14:46;1.90;;;1.80;;
58992;SDS011;44782;0.000;0.000;2023-06-26T10:17:10;1.88;;;1.77;;
58992;SDS011;44782;0.000;0.000;2023-06-26T10:19:32;1.63;;;1.52;;
58992;SDS011;44782;0.000;0.000;2023-06-26T10:21:51;1.73;;;1.60;;
58992;SDS011;44782;0.000;0.000;2023-06-26T10:24:08;2.00;;;1.77;;
58992;SDS011;44782;0.000;0.000;2023-06-26T10:26:27;1.65;;;1.55;;
58992;SDS011;44782;0.000;0.000;2023-06-26T10:28:44;1.60;;;1.45;;
58992;SDS011;44782;0.000;0.000;2023-06-26T10:31:03;1.83;;;1.73;;
58992;SDS011;44782;0.000;0.000;2023-06-26T10:33:20;2.05;;;1.85;;
58992;SDS011;44782;0.000;0.000;2023-06-26T10:35:43;2.55;;;1.70;;
58992;SDS011;44782;0.000;0.000;2023-06-26T10:38:00;3.00;;;1.80;;
58992;SDS011;44782;0.000;0.000;2023-06-26T10:40:27;2.42;;;1.60;;
58992;SDS011;44782;0.000;0.000;2023-06-26T10:42:43;2.05;;;1.85;;
58992;SDS011;44782;0.000;0.000;2023-06-26T10:44:59;1.77;;;1.67;;
58992;SDS011;44782;0.000;0.000;2023-06-26T10:47:47;1.70;;;1.60;;
58992;SDS011;44782;0.000;0.000;2023-06-26T10:50:23;2.53;;;1.70;;
58992;SDS011;44782;0.000;0.000;2023-06-26T10:52:44;1.60;;;1.50;;
58992;SDS011;44782;0.000;0.000;2023-06-26T10:55:00;1.80;;;1.70;;
58992;SDS011;44782;0.000;0.000;2023-06-26T10:57:23;1.50;;;1.40;;
58992;SDS011;44782;0.000;0.000;2023-06-26T10:59:40;2.58;;;1.80;;
58992;SDS011;44782;0.000;0.000;2023-06-26T11:04:21;1.70;;;1.60;;
58992;SDS011;44782;0.000;0.000;2023-06-26T11:07:14;1.90;;;1.70;;
58992;SDS011;44782;0.000;0.000;2023-06-26T11:09:35;1.75;;;1.65;;
58992;SDS011;44782;0.000;0.000;2023-06-26T11:12:42;1.45;;;1.35;;
58992;SDS011;44782;0.000;0.000;2023-06-26T11:15:00;1.95;;;1.70;;
58992;SDS011;44782;0.000;0.000;2023-06-26T11:17:16;2.80;;;1.58;;
58992;SDS011;44782;0.000;0.000;2023-06-26T11:19:34;2.00;;;1.80;;
58992;SDS011;44782;0.000;0.000;2023-06-26T11:21:49;1.83;;;1.60;;
58992;SDS011;44782;0.000;0.000;2023-06-26T11:24:06;1.70;;;1.60;;
58992;SDS011;44782;0.000;0.000;2023-06-26T11:26:22;1.52;;;1.42;;
58992;SDS011;44782;0.000;0.000;2023-06-26T11:28:38;1.60;;;1.50;;
58992;SDS011;44782;0.000;0.000;2023-06-26T11:30:53;1.70;;;1.60;;
58992;SDS011;44782;0.000;0.000;2023-06-26T11:33:10;1.90;;;1.58;;
58992;SDS011;44782;0.000;0.000;2023-06-26T11:35:25;2.40;;;1.63;;
58992;SDS011;44782;0.000;0.000;2023-06-26T11:37:45;1.60;;;1.50;;
58992;SDS011;44782;0.000;0.000;2023-06-26T11:40:15;2.28;;;1.70;;
58992;SDS011;44782;0.000;0.000;2023-06-26T11:42:34;1.67;;;1.58;;
58992;SDS011;44782;0.000;0.000;2023-06-26T11:44:50;1.88;;;1.63;;
58992;SDS011;44782;0.000;0.000;2023-06-26T11:47:07;4.25;;;1.75;;
58992;SDS011;44782;0.000;0.000;2023-06-26T11:49:23;1.65;;;1.55;;
58992;SDS011;44782;0.000;0.000;2023-06-26T11:51:40;1.70;;;1.58;;
58992;SDS011;44782;0.000;0.000;2023-06-26T11:53:56;1.60;;;1.50;;
58992;SDS011;44782;0.000;0.000;2023-06-26T11:56:12;1.73;;;1.40;;
58992;SDS011;44782;0.000;0.000;2023-06-26T11:58:32;1.40;;;1.38;;
58992;SDS011;44782;0.000;0.000;2023-06-26T12:00:48;1.92;;;1.50;;
58992;SDS011;44782;0.000;0.000;2023-06-26T12:03:04;1.90;;;1.80;;
58992;SDS011;44782;0.000;0.000;2023-06-26T12:05:20;1.77;;;1.40;;
58992;SDS011;44782;0.000;0.000;2023-06-26T12:07:36;1.50;;;1.40;;
58992;SDS011;44782;0.000;0.000;2023-06-26T12:09:52;1.60;;;1.50;;
58992;SDS011;44782;0.000;0.000;2023-06-26T12:12:08;1.90;;;1.70;;
58992;SDS011;44782;0.000;0.000;2023-06-26T12:14:29;1.85;;;1.63;;
58992;SDS011;44782;0.000;0.000;2023-06-26T12:16:45;1.85;;;1.75;;
58992;SDS011;44782;0.000;0.000;2023-06-26T12:19:02;1.60;;;1.50;;
58992;SDS011;44782;0.000;0.000;2023-06-26T12:23:58;1.60;;;1.50;;
58992;SDS011;44782;0.000;0.000;2023-06-26T12:26:18;1.48;;;1.38;;
58992;SDS011;44782;0.000;0.000;2023-06-26T12:28:35;1.60;;;1.50;;
58992;SDS011;44782;0.000;0.000;2023-06-26T12:33:27;1.98;;;1.50;;
58992;SDS011;44782;0.000;0.000;2023-06-26T12:35:43;1.70;;;1.60;;
58992;SDS011;44782;0.000;0.000;2023-06-26T12:38:00;1.67;;;1.50;;
58992;SDS011;44782;0.000;0.000;2023-06-26T12:40:16;1.50;;;1.40;;
58992;SDS011;44782;0.000;0.000;2023-06-26T12:42:33;1.83;;;1.70;;
58992;SDS011;44782;0.000;0.000;2023-06-26T12:44:49;1.60;;;1.50;;
58992;SDS011;44782;0.000;0.000;2023-06-26T12:47:06;1.48;;;1.38;;
58992;SDS011;44782;0.000;0.000;2023-06-26T12:49:29;1.60;;;1.50;;
58992;SDS011;44782;0.000;0.000;2023-06-26T12:51:46;1.70;;;1.60;;
58992;SDS011;44782;0.000;0.000;2023-06-26T12:54:02;1.65;;;1.55;;
58992;SDS011;44782;0.000;0.000;2023-06-26T12:56:17;1.85;;;1.60;;
58992;SDS011;44782;0.000;0.000;2023-06-26T12:58:35;1.48;;;1.38;;
58992;SDS011;44782;0.000;0.000;2023-06-26T13:00:51;2.22;;;1.52;;
58992;SDS011;44782;0.000;0.000;2023-06-26T13:03:12;1.60;;;1.50;;
58992;SDS011;44782;0.000;0.000;2023-06-26T13:05:28;1.75;;;1.52;;
58992;SDS011;44782;0.000;0.000;2023-06-26T13:07:43;1.77;;;1.60;;
58992;SDS011;44782;0.000;0.000;2023-06-26T13:09:59;1.50;;;1.40;;
58992;SDS011;44782;0.000;0.000;2023-06-26T13:12:15;1.70;;;1.60;;
58992;SDS011;44782;0.000;0.000;2023-06-26T13:14:31;2.67;;;1.73;;
58992;SDS011;44782;0.000;0.000;2023-06-26T13:16:47;1.77;;;1.48;;
58992;SDS011;44782;0.000;0.000;2023-06-26T13:19:02;1.60;;;1.50;;
58992;SDS011;44782;0.000;0.000;2023-06-26T13:21:18;1.60;;;1.50;;
58992;SDS011;44782;0.000;0.000;2023-06-26T13:23:34;1.58;;;1.40;;
58992;SDS011;44782;0.000;0.000;2023-06-26T13:25:49;1.98;;;1.50;;
58992;SDS011;44782;0.000;0.000;2023-06-26T13:28:05;1.65;;;1.55;;
58992;SDS011;44782;0.000;0.000;2023-06-26T13:30:21;1.73;;;1.55;;
58992;SDS011;44782;0.000;0.000;2023-06-26T13:32:37;1.58;;;1.48;;
58992;SDS011;44782;0.000;0.000;2023-06-26T13:34:52;1.40;;;1.30;;
58992;SDS011;44782;0.000;0.000;2023-06-26T13:37:12;1.42;;;1.30;;
58992;SDS011;44782;0.000;0.000;2023-06-26T13:39:27;1.58;;;1.48;;
58992;SDS011;44782;0.000;0.000;2023-06-26T13:41:43;1.70;;;1.60;;
58992;SDS011;44782;0.000;0.000;2023-06-26T13:43:59;1.40;;;1.30;;
58992;SDS011;44782;0.000;0.000;2023-06-26T13:46:15;1.70;;;1.60;;
58992;SDS011;44782;0.000;0.000;2023-06-26T13:48:32;2.53;;;1.40;;
58992;SDS011;44782;0.000;0.000;2023-06-26T13:50:47;1.60;;;1.50;;
58992;SDS011;44782;0.000;0.000;2023-06-26T13:53:03;1.45;;;1.35;;
58992;SDS011;44782;0.000;0.000;2023-06-26T13:55:19;2.13;;;1.50;;
58992;SDS011;44782;0.000;0.000;2023-06-26T13:57:37;1.50;;;1.40;;
58992;SDS011;44782;0.000;0.000;2023-06-26T13:59:56;1.52;;;1.42;;
58992;SDS011;44782;0.000;0.000;2023-06-26T14:02:11;1.50;;;1.40;;
58992;SDS011;44782;0.000;0.000;2023-06-26T14:04:27;1.50;;;1.40;;
58992;SDS011;44782;0.000;0.000;2023-06-26T14:06:43;1.40;;;1.30;;
58992;SDS011;44782;0.000;0.000;2023-06-26T14:09:00;1.60;;;1.50;;
58992;SDS011;44782;0.000;0.000;2023-06-26T14:11:17;1.70;;;1.60;;